sensor_id;sensor_type;location;lat;lon;timestamp;P1;durP1;ratioP1;P2;durP2;ratioP2
39738;SDS011;25422;48.286;8.484;2023-02-21T00:02:37;10.57;;;6.30;;
39738;SDS011;25422;48.286;8.484;2023-02-21T00:05:21;9.48;;;5.88;;
39738;SDS011;25422;48.286;8.484;2023-02-21T00:08:05;10.23;;;5.88;;
39738;SDS011;25422;48.286;8.484;2023-02-21T00:10:49;12.73;;;6.30;;
39738;SDS011;25422;48.286;8.484;2023-02-21T00:13:36;10.13;;;5.43;;
39738;SDS011;25422;48.286;8.484;2023-02-21T00:16:20;11.18;;;5.50;;
39738;SDS011;25422;48.286;8.484;2023-02-21T00:19:04;7.95;;;5.45;;
39738;SDS011;25422;48.286;8.484;2023-02-21T00:21:48;9.75;;;5.22;;
39738;SDS011;25422;48.286;8.484;2023-02-21T00:24:32;10.75;;;5.40;;
39738;SDS011;25422;48.286;8.484;2023-02-21T00:27:16;9.70;;;5.43;;
39738;SDS011;25422;48.286;8.484;2023-02-21T00:30:00;8.27;;;5.18;;
39738;SDS011;25422;48.286;8.484;2023-02-21T00:32:44;9.35;;;5.00;;
39738;SDS011;25422;48.286;8.484;2023-02-21T00:35:28;7.75;;;5.05;;
39738;SDS011;25422;48.286;8.484;2023-02-21T00:38:12;9.60;;;5.03;;
39738;SDS011;25422;48.286;8.484;2023-02-21T00:40:57;9.93;;;4.97;;
39738;SDS011;25422;48.286;8.484;2023-02-21T00:43:41;11.45;;;5.07;;
39738;SDS011;25422;48.286;8.484;2023-02-21T00:46:25;7.80;;;5.15;;
39738;SDS011;25422;48.286;8.484;2023-02-21T00:49:08;9.45;;;5.15;;
39738;SDS011;25422;48.286;8.484;2023-02-21T00:51:53;8.00;;;5.57;;
39738;SDS011;25422;48.286;8.484;2023-02-21T00:54:37;11.45;;;5.07;;
39738;SDS011;25422;48.286;8.484;2023-02-21T00:57:22;7.05;;;4.45;;
39738;SDS011;25422;48.286;8.484;2023-02-21T01:00:07;8.48;;;4.78;;
39738;SDS011;25422;48.286;8.484;2023-02-21T01:02:56;9.57;;;4.90;;
39738;SDS011;25422;48.286;8.484;2023-02-21T01:05:41;7.10;;;4.53;;
39738;SDS011;25422;48.286;8.484;2023-02-21T01:08:24;12.02;;;5.00;;
39738;SDS011;25422;48.286;8.484;2023-02-21T01:11:12;7.80;;;4.68;;
39738;SDS011;25422;48.286;8.484;2023-02-21T01:16:42;7.18;;;4.70;;
39738;SDS011;25422;48.286;8.484;2023-02-21T01:19:26;8.10;;;4.40;;
39738;SDS011;25422;48.286;8.484;2023-02-21T01:22:10;6.80;;;4.05;;
39738;SDS011;25422;48.286;8.484;2023-02-21T01:24:53;6.75;;;3.95;;
39738;SDS011;25422;48.286;8.484;2023-02-21T01:27:37;7.25;;;4.32;;
39738;SDS011;25422;48.286;8.484;2023-02-21T01:30:21;7.90;;;4.20;;
39738;SDS011;25422;48.286;8.484;2023-02-21T01:33:06;8.68;;;4.65;;
39738;SDS011;25422;48.286;8.484;2023-02-21T01:35:49;8.18;;;5.00;;
39738;SDS011;25422;48.286;8.484;2023-02-21T01:38:33;9.70;;;4.75;;
39738;SDS011;25422;48.286;8.484;2023-02-21T01:41:18;8.43;;;4.60;;
39738;SDS011;25422;48.286;8.484;2023-02-21T01:44:06;8.88;;;4.47;;
39738;SDS011;25422;48.286;8.484;2023-02-21T01:47:12;10.00;;;4.43;;
39738;SDS011;25422;48.286;8.484;2023-02-21T01:49:57;7.95;;;4.53;;
39738;SDS011;25422;48.286;8.484;2023-02-21T01:52:44;9.80;;;5.00;;
39738;SDS011;25422;48.286;8.484;2023-02-21T01:55:30;7.13;;;4.53;;
39738;SDS011;25422;48.286;8.484;2023-02-21T01:58:16;9.30;;;5.05;;
39738;SDS011;25422;48.286;8.484;2023-02-21T02:01:04;12.38;;;5.00;;
39738;SDS011;25422;48.286;8.484;2023-02-21T02:03:47;8.25;;;4.55;;
39738;SDS011;25422;48.286;8.484;2023-02-21T02:06:31;8.05;;;4.30;;
39738;SDS011;25422;48.286;8.484;2023-02-21T02:09:16;9.00;;;4.78;;
39738;SDS011;25422;48.286;8.484;2023-02-21T02:17:41;8.68;;;4.82;;
39738;SDS011;25422;48.286;8.484;2023-02-21T02:31:37;7.35;;;4.90;;
39738;SDS011;25422;48.286;8.484;2023-02-21T02:45:48;9.07;;;4.70;;
39738;SDS011;25422;48.286;8.484;2023-02-21T02:48:20;10.70;;;5.20;;
39738;SDS011;25422;48.286;8.484;2023-02-21T02:51:07;9.30;;;5.47;;
39738;SDS011;25422;48.286;8.484;2023-02-21T02:56:04;9.63;;;4.90;;
39738;SDS011;25422;48.286;8.484;2023-02-21T02:58:39;8.32;;;4.68;;
39738;SDS011;25422;48.286;8.484;2023-02-21T03:04:06;9.18;;;4.95;;
39738;SDS011;25422;48.286;8.484;2023-02-21T03:06:55;7.75;;;5.07;;
39738;SDS011;25422;48.286;8.484;2023-02-21T03:12:36;7.85;;;4.70;;
39738;SDS011;25422;48.286;8.484;2023-02-21T03:17:43;7.47;;;4.70;;
39738;SDS011;25422;48.286;8.484;2023-02-21T03:20:14;7.78;;;4.82;;
39738;SDS011;25422;48.286;8.484;2023-02-21T03:22:41;7.55;;;4.50;;
39738;SDS011;25422;48.286;8.484;2023-02-21T03:25:09;8.13;;;4.90;;
39738;SDS011;25422;48.286;8.484;2023-02-21T03:27:37;7.85;;;4.95;;
39738;SDS011;25422;48.286;8.484;2023-02-21T03:30:17;8.20;;;5.30;;
39738;SDS011;25422;48.286;8.484;2023-02-21T03:32:46;8.75;;;4.90;;
39738;SDS011;25422;48.286;8.484;2023-02-21T03:35:18;7.38;;;4.97;;
39738;SDS011;25422;48.286;8.484;2023-02-21T03:37:46;7.60;;;4.82;;
39738;SDS011;25422;48.286;8.484;2023-02-21T03:40:14;9.70;;;5.25;;
39738;SDS011;25422;48.286;8.484;2023-02-21T03:42:50;8.50;;;4.78;;
39738;SDS011;25422;48.286;8.484;2023-02-21T03:45:17;11.57;;;4.57;;
39738;SDS011;25422;48.286;8.484;2023-02-21T03:47:54;8.43;;;4.43;;
39738;SDS011;25422;48.286;8.484;2023-02-21T03:50:19;10.15;;;4.43;;
39738;SDS011;25422;48.286;8.484;2023-02-21T03:52:45;6.32;;;4.20;;
39738;SDS011;25422;48.286;8.484;2023-02-21T03:55:11;6.88;;;4.40;;
39738;SDS011;25422;48.286;8.484;2023-02-21T03:57:37;9.20;;;4.50;;
39738;SDS011;25422;48.286;8.484;2023-02-21T04:00:03;9.38;;;4.40;;
39738;SDS011;25422;48.286;8.484;2023-02-21T04:02:29;6.18;;;4.28;;
39738;SDS011;25422;48.286;8.484;2023-02-21T04:04:55;8.70;;;4.30;;
39738;SDS011;25422;48.286;8.484;2023-02-21T04:07:22;7.88;;;4.30;;
39738;SDS011;25422;48.286;8.484;2023-02-21T04:09:49;7.88;;;4.45;;
39738;SDS011;25422;48.286;8.484;2023-02-21T04:12:21;8.02;;;4.57;;
39738;SDS011;25422;48.286;8.484;2023-02-21T04:14:47;8.82;;;4.57;;
39738;SDS011;25422;48.286;8.484;2023-02-21T04:17:13;6.82;;;4.05;;
39738;SDS011;25422;48.286;8.484;2023-02-21T04:19:40;5.80;;;3.85;;
39738;SDS011;25422;48.286;8.484;2023-02-21T04:22:06;8.52;;;4.72;;
39738;SDS011;25422;48.286;8.484;2023-02-21T04:24:34;11.10;;;5.60;;
39738;SDS011;25422;48.286;8.484;2023-02-21T04:27:00;10.73;;;5.97;;
39738;SDS011;25422;48.286;8.484;2023-02-21T04:29:28;9.17;;;4.47;;
39738;SDS011;25422;48.286;8.484;2023-02-21T04:31:54;7.05;;;4.60;;
39738;SDS011;25422;48.286;8.484;2023-02-21T04:34:20;9.93;;;4.70;;
39738;SDS011;25422;48.286;8.484;2023-02-21T04:36:46;7.40;;;4.22;;
39738;SDS011;25422;48.286;8.484;2023-02-21T04:39:11;7.63;;;4.53;;
39738;SDS011;25422;48.286;8.484;2023-02-21T04:41:38;6.07;;;3.78;;
39738;SDS011;25422;48.286;8.484;2023-02-21T04:44:04;7.00;;;3.38;;
39738;SDS011;25422;48.286;8.484;2023-02-21T04:46:32;5.28;;;4.03;;
39738;SDS011;25422;48.286;8.484;2023-02-21T04:48:58;5.18;;;3.30;;
39738;SDS011;25422;48.286;8.484;2023-02-21T04:51:24;6.28;;;3.55;;
39738;SDS011;25422;48.286;8.484;2023-02-21T04:53:50;6.93;;;4.18;;
39738;SDS011;25422;48.286;8.484;2023-02-21T04:56:20;6.00;;;3.55;;
39738;SDS011;25422;48.286;8.484;2023-02-21T04:58:48;6.85;;;3.90;;
39738;SDS011;25422;48.286;8.484;2023-02-21T05:01:14;7.22;;;3.95;;
39738;SDS011;25422;48.286;8.484;2023-02-21T05:03:41;7.03;;;3.97;;
39738;SDS011;25422;48.286;8.484;2023-02-21T05:06:06;6.38;;;3.78;;
39738;SDS011;25422;48.286;8.484;2023-02-21T05:08:32;5.72;;;3.55;;
39738;SDS011;25422;48.286;8.484;2023-02-21T05:10:57;7.60;;;4.30;;
39738;SDS011;25422;48.286;8.484;2023-02-21T05:13:23;10.73;;;4.47;;
39738;SDS011;25422;48.286;8.484;2023-02-21T05:15:48;7.53;;;4.38;;
39738;SDS011;25422;48.286;8.484;2023-02-21T05:18:14;7.03;;;4.03;;
39738;SDS011;25422;48.286;8.484;2023-02-21T05:20:47;4.63;;;3.47;;
39738;SDS011;25422;48.286;8.484;2023-02-21T05:23:13;13.20;;;4.47;;
39738;SDS011;25422;48.286;8.484;2023-02-21T05:25:41;17.73;;;10.63;;
39738;SDS011;25422;48.286;8.484;2023-02-21T05:28:06;15.93;;;6.03;;
39738;SDS011;25422;48.286;8.484;2023-02-21T05:30:32;8.05;;;4.82;;
39738;SDS011;25422;48.286;8.484;2023-02-21T05:32:57;7.50;;;3.95;;
39738;SDS011;25422;48.286;8.484;2023-02-21T05:35:23;5.13;;;3.33;;
39738;SDS011;25422;48.286;8.484;2023-02-21T05:37:48;6.05;;;3.70;;
39738;SDS011;25422;48.286;8.484;2023-02-21T05:40:14;5.55;;;3.60;;
39738;SDS011;25422;48.286;8.484;2023-02-21T05:42:41;19.33;;;8.55;;
39738;SDS011;25422;48.286;8.484;2023-02-21T05:45:07;10.18;;;4.32;;
39738;SDS011;25422;48.286;8.484;2023-02-21T05:47:33;8.20;;;3.70;;
39738;SDS011;25422;48.286;8.484;2023-02-21T05:49:59;8.13;;;3.72;;
39738;SDS011;25422;48.286;8.484;2023-02-21T05:52:25;6.53;;;3.63;;
39738;SDS011;25422;48.286;8.484;2023-02-21T05:54:50;6.93;;;4.00;;
39738;SDS011;25422;48.286;8.484;2023-02-21T05:57:16;6.38;;;4.10;;
39738;SDS011;25422;48.286;8.484;2023-02-21T05:59:42;7.53;;;4.18;;
39738;SDS011;25422;48.286;8.484;2023-02-21T06:02:08;9.43;;;4.32;;
39738;SDS011;25422;48.286;8.484;2023-02-21T06:04:33;30.00;;;15.23;;
39738;SDS011;25422;48.286;8.484;2023-02-21T06:06:58;7.55;;;4.50;;
39738;SDS011;25422;48.286;8.484;2023-02-21T06:09:24;7.40;;;4.10;;
39738;SDS011;25422;48.286;8.484;2023-02-21T06:11:49;6.53;;;4.10;;
39738;SDS011;25422;48.286;8.484;2023-02-21T06:14:16;6.82;;;4.00;;
39738;SDS011;25422;48.286;8.484;2023-02-21T06:16:44;8.13;;;4.45;;
39738;SDS011;25422;48.286;8.484;2023-02-21T06:19:10;7.75;;;3.97;;
39738;SDS011;25422;48.286;8.484;2023-02-21T06:21:38;5.50;;;3.85;;
39738;SDS011;25422;48.286;8.484;2023-02-21T06:24:06;5.55;;;3.75;;
39738;SDS011;25422;48.286;8.484;2023-02-21T06:26:32;9.88;;;3.75;;
39738;SDS011;25422;48.286;8.484;2023-02-21T06:28:58;6.95;;;3.92;;
39738;SDS011;25422;48.286;8.484;2023-02-21T06:31:23;6.75;;;4.38;;
39738;SDS011;25422;48.286;8.484;2023-02-21T06:33:49;7.70;;;3.90;;
39738;SDS011;25422;48.286;8.484;2023-02-21T06:36:21;9.13;;;4.60;;
39738;SDS011;25422;48.286;8.484;2023-02-21T06:38:49;7.20;;;3.83;;
39738;SDS011;25422;48.286;8.484;2023-02-21T06:41:17;7.13;;;4.35;;
39738;SDS011;25422;48.286;8.484;2023-02-21T06:43:45;8.70;;;4.70;;
39738;SDS011;25422;48.286;8.484;2023-02-21T06:46:14;8.45;;;3.85;;
39738;SDS011;25422;48.286;8.484;2023-02-21T06:48:42;8.10;;;4.10;;
39738;SDS011;25422;48.286;8.484;2023-02-21T06:51:08;5.88;;;4.30;;
39738;SDS011;25422;48.286;8.484;2023-02-21T06:53:38;5.60;;;3.72;;
39738;SDS011;25422;48.286;8.484;2023-02-21T06:56:07;7.78;;;3.92;;
39738;SDS011;25422;48.286;8.484;2023-02-21T06:58:32;5.88;;;4.13;;
39738;SDS011;25422;48.286;8.484;2023-02-21T07:00:58;7.97;;;3.70;;
39738;SDS011;25422;48.286;8.484;2023-02-21T07:03:24;5.78;;;4.22;;
39738;SDS011;25422;48.286;8.484;2023-02-21T07:05:49;5.18;;;3.83;;
39738;SDS011;25422;48.286;8.484;2023-02-21T07:08:15;7.95;;;3.92;;
39738;SDS011;25422;48.286;8.484;2023-02-21T07:10:40;5.32;;;3.80;;
39738;SDS011;25422;48.286;8.484;2023-02-21T07:13:06;8.95;;;3.80;;
39738;SDS011;25422;48.286;8.484;2023-02-21T07:15:32;8.85;;;3.65;;
39738;SDS011;25422;48.286;8.484;2023-02-21T07:17:57;5.43;;;3.60;;
39738;SDS011;25422;48.286;8.484;2023-02-21T07:20:23;6.90;;;4.00;;
39738;SDS011;25422;48.286;8.484;2023-02-21T07:22:48;6.22;;;3.88;;
39738;SDS011;25422;48.286;8.484;2023-02-21T07:25:15;7.20;;;4.13;;
39738;SDS011;25422;48.286;8.484;2023-02-21T07:27:42;7.50;;;4.60;;
39738;SDS011;25422;48.286;8.484;2023-02-21T07:30:08;8.27;;;4.35;;
39738;SDS011;25422;48.286;8.484;2023-02-21T07:32:35;26.50;;;19.05;;
39738;SDS011;25422;48.286;8.484;2023-02-21T07:35:01;25.20;;;19.25;;
39738;SDS011;25422;48.286;8.484;2023-02-21T07:37:27;21.52;;;15.23;;
39738;SDS011;25422;48.286;8.484;2023-02-21T07:39:52;13.45;;;8.32;;
39738;SDS011;25422;48.286;8.484;2023-02-21T07:42:18;9.38;;;6.05;;
39738;SDS011;25422;48.286;8.484;2023-02-21T07:44:44;9.27;;;5.90;;
39738;SDS011;25422;48.286;8.484;2023-02-21T07:47:09;6.15;;;4.68;;
39738;SDS011;25422;48.286;8.484;2023-02-21T07:49:36;6.22;;;4.40;;
39738;SDS011;25422;48.286;8.484;2023-02-21T07:52:03;7.40;;;5.15;;
39738;SDS011;25422;48.286;8.484;2023-02-21T07:54:28;5.95;;;4.07;;
39738;SDS011;25422;48.286;8.484;2023-02-21T07:56:54;7.47;;;4.25;;
39738;SDS011;25422;48.286;8.484;2023-02-21T07:59:19;6.97;;;3.83;;
39738;SDS011;25422;48.286;8.484;2023-02-21T08:01:45;7.88;;;4.50;;
39738;SDS011;25422;48.286;8.484;2023-02-21T08:04:11;7.32;;;4.07;;
39738;SDS011;25422;48.286;8.484;2023-02-21T08:06:37;9.25;;;4.78;;
39738;SDS011;25422;48.286;8.484;2023-02-21T08:09:03;7.15;;;4.32;;
39738;SDS011;25422;48.286;8.484;2023-02-21T08:11:29;8.88;;;5.13;;
39738;SDS011;25422;48.286;8.484;2023-02-21T08:13:54;9.00;;;4.53;;
39738;SDS011;25422;48.286;8.484;2023-02-21T08:16:20;9.90;;;4.78;;
39738;SDS011;25422;48.286;8.484;2023-02-21T08:18:48;12.18;;;5.10;;
39738;SDS011;25422;48.286;8.484;2023-02-21T08:21:14;7.95;;;4.85;;
39738;SDS011;25422;48.286;8.484;2023-02-21T08:23:41;7.53;;;4.38;;
39738;SDS011;25422;48.286;8.484;2023-02-21T08:26:06;6.35;;;3.80;;
39738;SDS011;25422;48.286;8.484;2023-02-21T08:28:31;5.80;;;3.90;;
39738;SDS011;25422;48.286;8.484;2023-02-21T08:30:57;5.13;;;3.47;;
39738;SDS011;25422;48.286;8.484;2023-02-21T08:33:22;6.65;;;3.58;;
39738;SDS011;25422;48.286;8.484;2023-02-21T08:35:48;4.68;;;3.22;;
39738;SDS011;25422;48.286;8.484;2023-02-21T08:38:14;3.95;;;2.80;;
39738;SDS011;25422;48.286;8.484;2023-02-21T08:40:39;5.57;;;2.83;;
39738;SDS011;25422;48.286;8.484;2023-02-21T08:43:05;7.53;;;3.25;;
39738;SDS011;25422;48.286;8.484;2023-02-21T08:45:31;5.40;;;3.15;;
39738;SDS011;25422;48.286;8.484;2023-02-21T08:47:57;6.88;;;3.55;;
39738;SDS011;25422;48.286;8.484;2023-02-21T08:50:24;7.93;;;3.88;;
39738;SDS011;25422;48.286;8.484;2023-02-21T08:52:51;6.43;;;3.60;;
39738;SDS011;25422;48.286;8.484;2023-02-21T08:55:17;4.18;;;3.20;;
39738;SDS011;25422;48.286;8.484;2023-02-21T08:57:43;5.88;;;3.55;;
39738;SDS011;25422;48.286;8.484;2023-02-21T09:00:10;8.15;;;3.50;;
39738;SDS011;25422;48.286;8.484;2023-02-21T09:02:38;4.82;;;3.10;;
39738;SDS011;25422;48.286;8.484;2023-02-21T09:05:15;5.45;;;3.22;;
39738;SDS011;25422;48.286;8.484;2023-02-21T09:07:43;6.47;;;3.42;;
39738;SDS011;25422;48.286;8.484;2023-02-21T09:10:12;7.13;;;3.17;;
39738;SDS011;25422;48.286;8.484;2023-02-21T09:12:37;7.68;;;3.80;;
39738;SDS011;25422;48.286;8.484;2023-02-21T09:15:04;7.10;;;3.63;;
39738;SDS011;25422;48.286;8.484;2023-02-21T09:17:30;8.05;;;4.45;;
39738;SDS011;25422;48.286;8.484;2023-02-21T09:20:02;8.63;;;4.25;;
39738;SDS011;25422;48.286;8.484;2023-02-21T09:22:30;7.35;;;4.13;;
39738;SDS011;25422;48.286;8.484;2023-02-21T09:24:56;7.35;;;3.72;;
39738;SDS011;25422;48.286;8.484;2023-02-21T09:27:22;5.35;;;3.28;;
39738;SDS011;25422;48.286;8.484;2023-02-21T09:30:04;6.40;;;3.05;;
39738;SDS011;25422;48.286;8.484;2023-02-21T09:32:31;4.75;;;2.90;;
39738;SDS011;25422;48.286;8.484;2023-02-21T09:34:57;4.05;;;2.78;;
39738;SDS011;25422;48.286;8.484;2023-02-21T09:37:23;5.85;;;2.95;;
39738;SDS011;25422;48.286;8.484;2023-02-21T09:39:49;3.50;;;2.38;;
39738;SDS011;25422;48.286;8.484;2023-02-21T09:42:17;5.30;;;3.00;;
39738;SDS011;25422;48.286;8.484;2023-02-21T09:44:43;5.40;;;3.10;;
39738;SDS011;25422;48.286;8.484;2023-02-21T09:47:12;4.70;;;2.47;;
39738;SDS011;25422;48.286;8.484;2023-02-21T09:50:03;8.10;;;2.40;;
39738;SDS011;25422;48.286;8.484;2023-02-21T09:52:32;5.45;;;2.42;;
39738;SDS011;25422;48.286;8.484;2023-02-21T09:55:10;5.13;;;1.95;;
39738;SDS011;25422;48.286;8.484;2023-02-21T09:57:44;3.85;;;2.00;;
39738;SDS011;25422;48.286;8.484;2023-02-21T10:00:17;3.17;;;1.80;;
39738;SDS011;25422;48.286;8.484;2023-02-21T10:05:47;3.95;;;1.13;;
39738;SDS011;25422;48.286;8.484;2023-02-21T10:08:25;3.72;;;1.17;;
39738;SDS011;25422;48.286;8.484;2023-02-21T10:14:01;1.70;;;1.00;;
39738;SDS011;25422;48.286;8.484;2023-02-21T10:16:41;1.63;;;1.00;;
39738;SDS011;25422;48.286;8.484;2023-02-21T10:19:25;0.98;;;0.80;;
39738;SDS011;25422;48.286;8.484;2023-02-21T10:21:55;1.63;;;0.77;;
39738;SDS011;25422;48.286;8.484;2023-02-21T10:24:23;2.42;;;0.80;;
39738;SDS011;25422;48.286;8.484;2023-02-21T10:29:37;1.85;;;0.80;;
39738;SDS011;25422;48.286;8.484;2023-02-21T10:32:06;0.90;;;0.70;;
39738;SDS011;25422;48.286;8.484;2023-02-21T10:34:33;2.20;;;0.90;;
39738;SDS011;25422;48.286;8.484;2023-02-21T10:37:05;3.28;;;1.30;;
39738;SDS011;25422;48.286;8.484;2023-02-21T10:39:43;1.98;;;1.70;;
39738;SDS011;25422;48.286;8.484;2023-02-21T10:42:18;1.20;;;1.00;;
39738;SDS011;25422;48.286;8.484;2023-02-21T10:45:05;6.65;;;6.00;;
39738;SDS011;25422;48.286;8.484;2023-02-21T10:47:35;8.10;;;6.43;;
39738;SDS011;25422;48.286;8.484;2023-02-21T10:50:12;2.60;;;1.88;;
39738;SDS011;25422;48.286;8.484;2023-02-21T10:52:45;5.28;;;2.00;;
39738;SDS011;25422;48.286;8.484;2023-02-21T10:55:14;4.38;;;3.75;;
39738;SDS011;25422;48.286;8.484;2023-02-21T10:57:42;11.80;;;9.13;;
39738;SDS011;25422;48.286;8.484;2023-02-21T11:00:18;3.33;;;2.72;;
39738;SDS011;25422;48.286;8.484;2023-02-21T11:03:20;4.30;;;3.17;;
39738;SDS011;25422;48.286;8.484;2023-02-21T11:05:52;1.00;;;0.70;;
39738;SDS011;25422;48.286;8.484;2023-02-21T11:08:35;1.05;;;0.70;;
39738;SDS011;25422;48.286;8.484;2023-02-21T11:11:03;0.50;;;0.50;;
39738;SDS011;25422;48.286;8.484;2023-02-21T11:13:29;0.47;;;0.30;;
39738;SDS011;25422;48.286;8.484;2023-02-21T11:16:14;0.60;;;0.40;;
39738;SDS011;25422;48.286;8.484;2023-02-21T11:18:41;0.98;;;0.40;;
39738;SDS011;25422;48.286;8.484;2023-02-21T11:21:16;1.33;;;0.40;;
39738;SDS011;25422;48.286;8.484;2023-02-21T11:24:02;1.75;;;1.02;;
39738;SDS011;25422;48.286;8.484;2023-02-21T11:26:43;2.00;;;1.20;;
39738;SDS011;25422;48.286;8.484;2023-02-21T11:29:14;0.40;;;0.40;;
39738;SDS011;25422;48.286;8.484;2023-02-21T11:31:45;1.38;;;0.60;;
39738;SDS011;25422;48.286;8.484;2023-02-21T11:34:11;0.55;;;0.40;;
39738;SDS011;25422;48.286;8.484;2023-02-21T11:36:40;2.10;;;0.50;;
39738;SDS011;25422;48.286;8.484;2023-02-21T11:39:19;0.82;;;0.60;;
39738;SDS011;25422;48.286;8.484;2023-02-21T11:46:46;2.08;;;1.38;;
39738;SDS011;25422;48.286;8.484;2023-02-21T11:49:20;2.15;;;1.05;;
39738;SDS011;25422;48.286;8.484;2023-02-21T11:51:58;1.00;;;0.50;;
39738;SDS011;25422;48.286;8.484;2023-02-21T11:54:29;0.30;;;0.30;;
39738;SDS011;25422;48.286;8.484;2023-02-21T11:59:41;1.33;;;0.30;;
39738;SDS011;25422;48.286;8.484;2023-02-21T12:05:24;0.98;;;0.40;;
39738;SDS011;25422;48.286;8.484;2023-02-21T12:11:18;2.53;;;1.88;;
39738;SDS011;25422;48.286;8.484;2023-02-21T12:13:56;1.00;;;0.68;;
39738;SDS011;25422;48.286;8.484;2023-02-21T12:24:52;0.55;;;0.40;;
39738;SDS011;25422;48.286;8.484;2023-02-21T12:27:32;0.70;;;0.40;;
39738;SDS011;25422;48.286;8.484;2023-02-21T12:33:03;0.60;;;0.32;;
39738;SDS011;25422;48.286;8.484;2023-02-21T12:40:50;1.92;;;0.40;;
39738;SDS011;25422;48.286;8.484;2023-02-21T12:43:25;0.65;;;0.50;;
39738;SDS011;25422;48.286;8.484;2023-02-21T12:48:53;0.93;;;0.30;;
39738;SDS011;25422;48.286;8.484;2023-02-21T12:51:31;2.33;;;0.50;;
39738;SDS011;25422;48.286;8.484;2023-02-21T12:54:02;0.82;;;0.52;;
39738;SDS011;25422;48.286;8.484;2023-02-21T12:56:40;2.50;;;0.40;;
39738;SDS011;25422;48.286;8.484;2023-02-21T12:59:19;0.80;;;0.40;;
39738;SDS011;25422;48.286;8.484;2023-02-21T13:01:52;0.30;;;0.30;;
39738;SDS011;25422;48.286;8.484;2023-02-21T13:04:30;0.32;;;0.15;;
39738;SDS011;25422;48.286;8.484;2023-02-21T13:07:04;0.52;;;0.30;;
39738;SDS011;25422;48.286;8.484;2023-02-21T13:09:51;1.00;;;0.40;;
39738;SDS011;25422;48.286;8.484;2023-02-21T13:12:20;1.55;;;0.40;;
39738;SDS011;25422;48.286;8.484;2023-02-21T13:15:33;0.63;;;0.30;;
39738;SDS011;25422;48.286;8.484;2023-02-21T13:17:48;0.45;;;0.30;;
39738;SDS011;25422;48.286;8.484;2023-02-21T13:20:17;0.40;;;0.30;;
39738;SDS011;25422;48.286;8.484;2023-02-21T13:28:18;1.50;;;0.43;;
39738;SDS011;25422;48.286;8.484;2023-02-21T13:30:51;1.05;;;0.43;;
39738;SDS011;25422;48.286;8.484;2023-02-21T13:33:26;1.88;;;0.47;;
39738;SDS011;25422;48.286;8.484;2023-02-21T13:39:08;1.15;;;0.50;;
39738;SDS011;25422;48.286;8.484;2023-02-21T13:42:23;0.95;;;0.50;;
39738;SDS011;25422;48.286;8.484;2023-02-21T13:44:30;2.58;;;0.57;;
39738;SDS011;25422;48.286;8.484;2023-02-21T13:46:59;1.08;;;0.70;;
39738;SDS011;25422;48.286;8.484;2023-02-21T13:49:39;0.65;;;0.65;;
39738;SDS011;25422;48.286;8.484;2023-02-21T13:52:34;1.00;;;0.75;;
39738;SDS011;25422;48.286;8.484;2023-02-21T13:57:48;0.65;;;0.60;;
39738;SDS011;25422;48.286;8.484;2023-02-21T14:03:02;2.75;;;0.68;;
39738;SDS011;25422;48.286;8.484;2023-02-21T14:08:17;1.60;;;0.63;;
39738;SDS011;25422;48.286;8.484;2023-02-21T14:10:50;0.60;;;0.60;;
39738;SDS011;25422;48.286;8.484;2023-02-21T14:13:33;2.37;;;0.70;;
39738;SDS011;25422;48.286;8.484;2023-02-21T14:16:24;2.40;;;0.60;;
39738;SDS011;25422;48.286;8.484;2023-02-21T14:18:58;0.95;;;0.60;;
39738;SDS011;25422;48.286;8.484;2023-02-21T14:21:40;0.80;;;0.60;;
39738;SDS011;25422;48.286;8.484;2023-02-21T14:31:46;0.75;;;0.68;;
39738;SDS011;25422;48.286;8.484;2023-02-21T14:37:20;1.65;;;0.80;;
39738;SDS011;25422;48.286;8.484;2023-02-21T14:48:29;1.00;;;0.90;;
39738;SDS011;25422;48.286;8.484;2023-02-21T14:51:07;1.63;;;0.70;;
39738;SDS011;25422;48.286;8.484;2023-02-21T15:08:01;1.40;;;1.08;;
39738;SDS011;25422;48.286;8.484;2023-02-21T15:10:38;1.50;;;0.80;;
39738;SDS011;25422;48.286;8.484;2023-02-21T15:13:05;2.88;;;0.90;;
39738;SDS011;25422;48.286;8.484;2023-02-21T15:15:32;0.65;;;0.65;;
39738;SDS011;25422;48.286;8.484;2023-02-21T15:18:07;1.10;;;0.88;;
39738;SDS011;25422;48.286;8.484;2023-02-21T15:20:38;1.83;;;1.55;;
39738;SDS011;25422;48.286;8.484;2023-02-21T15:23:20;1.02;;;0.93;;
39738;SDS011;25422;48.286;8.484;2023-02-21T15:25:57;2.95;;;0.70;;
39738;SDS011;25422;48.286;8.484;2023-02-21T15:28:26;2.10;;;1.90;;
39738;SDS011;25422;48.286;8.484;2023-02-21T15:30:54;1.37;;;1.10;;
39738;SDS011;25422;48.286;8.484;2023-02-21T15:33:23;1.20;;;1.10;;
39738;SDS011;25422;48.286;8.484;2023-02-21T15:35:55;1.63;;;1.10;;
39738;SDS011;25422;48.286;8.484;2023-02-21T15:38:32;1.20;;;1.10;;
39738;SDS011;25422;48.286;8.484;2023-02-21T15:41:12;2.22;;;1.23;;
39738;SDS011;25422;48.286;8.484;2023-02-21T15:43:57;1.73;;;0.93;;
39738;SDS011;25422;48.286;8.484;2023-02-21T15:46:38;1.60;;;1.25;;
39738;SDS011;25422;48.286;8.484;2023-02-21T15:49:08;2.13;;;0.88;;
39738;SDS011;25422;48.286;8.484;2023-02-21T15:52:03;2.47;;;1.20;;
39738;SDS011;25422;48.286;8.484;2023-02-21T15:54:33;3.28;;;1.10;;
39738;SDS011;25422;48.286;8.484;2023-02-21T15:57:17;2.83;;;1.40;;
39738;SDS011;25422;48.286;8.484;2023-02-21T15:59:47;1.42;;;1.00;;
39738;SDS011;25422;48.286;8.484;2023-02-21T16:02:19;3.63;;;1.00;;
39738;SDS011;25422;48.286;8.484;2023-02-21T16:04:48;4.03;;;2.47;;
39738;SDS011;25422;48.286;8.484;2023-02-21T16:09:56;14.55;;;8.88;;
39738;SDS011;25422;48.286;8.484;2023-02-21T16:12:30;10.32;;;6.75;;
39738;SDS011;25422;48.286;8.484;2023-02-21T16:15:03;6.05;;;4.50;;
39738;SDS011;25422;48.286;8.484;2023-02-21T16:17:36;3.30;;;2.53;;
39738;SDS011;25422;48.286;8.484;2023-02-21T16:20:24;2.88;;;1.10;;
39738;SDS011;25422;48.286;8.484;2023-02-21T16:28:31;1.65;;;1.00;;
39738;SDS011;25422;48.286;8.484;2023-02-21T16:30:58;3.55;;;1.40;;
39738;SDS011;25422;48.286;8.484;2023-02-21T16:33:25;6.25;;;2.50;;
39738;SDS011;25422;48.286;8.484;2023-02-21T16:35:51;7.68;;;0.98;;
39738;SDS011;25422;48.286;8.484;2023-02-21T16:38:18;2.78;;;0.70;;
39738;SDS011;25422;48.286;8.484;2023-02-21T16:40:45;2.58;;;1.00;;
39738;SDS011;25422;48.286;8.484;2023-02-21T16:43:18;1.60;;;0.90;;
39738;SDS011;25422;48.286;8.484;2023-02-21T16:45:46;3.45;;;1.30;;
39738;SDS011;25422;48.286;8.484;2023-02-21T16:48:17;6.47;;;1.35;;
39738;SDS011;25422;48.286;8.484;2023-02-21T16:50:46;1.10;;;1.00;;
39738;SDS011;25422;48.286;8.484;2023-02-21T16:53:13;4.68;;;1.15;;
39738;SDS011;25422;48.286;8.484;2023-02-21T16:55:40;2.90;;;1.15;;
39738;SDS011;25422;48.286;8.484;2023-02-21T16:58:07;5.25;;;2.80;;
39738;SDS011;25422;48.286;8.484;2023-02-21T17:00:43;4.20;;;3.30;;
39738;SDS011;25422;48.286;8.484;2023-02-21T17:03:09;3.58;;;2.42;;
39738;SDS011;25422;48.286;8.484;2023-02-21T17:05:34;2.92;;;1.67;;
39738;SDS011;25422;48.286;8.484;2023-02-21T17:08:00;1.90;;;1.40;;
39738;SDS011;25422;48.286;8.484;2023-02-21T17:10:25;4.47;;;2.15;;
39738;SDS011;25422;48.286;8.484;2023-02-21T17:12:51;4.55;;;2.20;;
39738;SDS011;25422;48.286;8.484;2023-02-21T17:15:16;8.07;;;3.25;;
39738;SDS011;25422;48.286;8.484;2023-02-21T17:17:42;2.92;;;1.83;;
39738;SDS011;25422;48.286;8.484;2023-02-21T17:20:07;2.58;;;1.58;;
39738;SDS011;25422;48.286;8.484;2023-02-21T17:22:38;4.60;;;2.17;;
39738;SDS011;25422;48.286;8.484;2023-02-21T17:25:04;5.93;;;3.75;;
39738;SDS011;25422;48.286;8.484;2023-02-21T17:27:30;5.68;;;2.10;;
39738;SDS011;25422;48.286;8.484;2023-02-21T17:29:55;3.40;;;1.60;;
39738;SDS011;25422;48.286;8.484;2023-02-21T17:32:21;2.15;;;1.40;;
39738;SDS011;25422;48.286;8.484;2023-02-21T17:34:46;4.78;;;1.60;;
39738;SDS011;25422;48.286;8.484;2023-02-21T17:37:12;6.07;;;2.20;;
39738;SDS011;25422;48.286;8.484;2023-02-21T17:39:37;5.75;;;3.67;;